Time;durP1;ratioP1;P1;durP2;ratioP2;P2;SDS_P1;SDS_P2;PMS_P1;PMS_P2;Temp;Humidity;BMP_temperature;BMP_pressure;BME280_temperature;BME280_humidity;BME280_pressure;Samples;Min_cycle;Max_cycle;Signal;HPM_P1;HPM_P2
2022/12/10 00:01:20;;;;;;;;;54.00;46.67;;;;;;;;5061519;28;61771;-78
2022/12/10 00:03:46;;;;;;;;;66.00;49.33;;;;;;;;5077101;28;62160;-78
2022/12/10 00:06:12;;;;;;;;;69.00;51.67;;;;;;;;5061780;28;61997;-78
2022/12/10 00:08:38;;;;;;;;;69.00;51.33;;;;;;;;5061783;28;61968;-78
2022/12/10 00:11:04;;;;;;;;;70.33;53.67;;;;;;;;5061136;28;63030;-78
2022/12/10 00:13:30;;;;;;;;;73.33;50.33;;;;;;;;5060931;28;61960;-78
2022/12/10 00:15:55;;;;;;;;;66.33;50.00;;;;;;;;5061610;28;62129;-78
2022/12/10 00:18:20;;;;;;;;;76.00;51.33;;;;;;;;5043805;28;61848;-78
2022/12/10 00:20:46;;;;;;;;;60.67;44.33;;;;;;;;5060762;28;61680;-78
2022/12/10 00:23:11;;;;;;;;;55.67;46.33;;;;;;;;5062866;28;61996;-79
2022/12/10 00:25:36;;;;;;;;;64.00;48.00;;;;;;;;5046596;28;62055;-77
2022/12/10 00:28:02;;;;;;;;;57.67;46.00;;;;;;;;5065073;28;61906;-78
2022/12/10 00:30:27;;;;;;;;;66.33;49.33;;;;;;;;5064764;28;61812;-78
2022/12/10 00:32:52;;;;;;;;;62.33;46.33;;;;;;;;5046532;28;61838;-79
2022/12/10 00:35:17;;;;;;;;;65.00;48.00;;;;;;;;5047117;28;61956;-78
2022/12/10 00:37:43;;;;;;;;;73.00;51.67;;;;;;;;5065256;28;61849;-78
2022/12/10 00:40:08;;;;;;;;;65.00;46.67;;;;;;;;5045958;28;64330;-78
2022/12/10 00:42:33;;;;;;;;;56.00;45.00;;;;;;;;5065246;28;61746;-78
2022/12/10 00:44:59;;;;;;;;;65.00;45.00;;;;;;;;5046546;28;61890;-78
2022/12/10 00:47:24;;;;;;;;;56.33;45.33;;;;;;;;5065311;28;61910;-79
2022/12/10 00:49:49;;;;;;;;;60.33;43.00;;;;;;;;5063875;28;62923;-78
2022/12/10 00:52:14;;;;;;;;;57.67;44.67;;;;;;;;5065157;28;61893;-78
2022/12/10 00:54:40;;;;;;;;;59.00;44.33;;;;;;;;5064199;28;61743;-78
2022/12/10 00:57:06;;;;;;;;;56.33;42.00;;;;;;;;5065027;28;62063;-78
2022/12/10 00:59:31;;;;;;;;;58.00;41.50;;;;;;;;5064079;28;62368;-78
2022/12/10 01:01:57;;;;;;;;;48.25;43.00;;;;;;;;5064468;28;61984;-78
2022/12/10 01:04:22;;;;;;;;;67.67;45.33;;;;;;;;5064841;28;61726;-78
2022/12/10 01:06:48;;;;;;;;;61.00;45.00;;;;;;;;5064626;28;62361;-78
2022/12/10 01:09:16;;;;;;;;;49.00;37.33;;;;;;;;5045498;28;63742;-78
2022/12/10 01:11:42;;;;;;;;;51.33;40.00;;;;;;;;5064632;28;61862;-78
2022/12/10 01:14:08;;;;;;;;;61.33;39.33;;;;;;;;5045850;28;61758;-78
2022/12/10 01:16:34;;;;;;;;;53.00;39.33;;;;;;;;5046651;28;62184;-78
2022/12/10 01:18:59;;;;;;;;;50.00;34.75;;;;;;;;5045484;28;63604;-77
2022/12/10 01:21:25;;;;;;;;;53.33;36.00;;;;;;;;5064570;28;62194;-78
2022/12/10 01:23:51;;;;;;;;;46.00;38.00;;;;;;;;5045903;28;62018;-78
2022/12/10 01:26:18;;;;;;;;;46.33;38.00;;;;;;;;5046437;28;61989;-78
2022/12/10 01:28:44;;;;;;;;;38.33;33.33;;;;;;;;5063310;28;63255;-78
2022/12/10 01:31:10;;;;;;;;;50.33;36.33;;;;;;;;5045906;28;62041;-78
2022/12/10 01:33:36;;;;;;;;;41.33;33.00;;;;;;;;5064486;28;61645;-78
2022/12/10 01:36:09;;;;;;;;;48.00;38.67;;;;;;;;5063472;28;61846;-78
2022/12/10 01:38:35;;;;;;;;;45.67;36.00;;;;;;;;5045395;28;63656;-78
2022/12/10 01:41:00;;;;;;;;;49.00;31.33;;;;;;;;5045875;28;61755;-78
2022/12/10 01:43:26;;;;;;;;;42.33;35.33;;;;;;;;5064020;28;62198;-78
2022/12/10 01:45:52;;;;;;;;;57.00;36.33;;;;;;;;5064420;28;61949;-78
2022/12/10 01:48:17;;;;;;;;;57.00;42.33;;;;;;;;5045360;28;63478;-78
2022/12/10 01:50:42;;;;;;;;;39.00;29.67;;;;;;;;5045732;28;61839;-78
2022/12/10 01:53:08;;;;;;;;;49.00;41.33;;;;;;;;5063675;28;61901;-78
2022/12/10 01:55:37;;;;;;;;;62.67;38.67;;;;;;;;5064081;28;61924;-78
2022/12/10 01:58:02;;;;;;;;;46.67;34.33;;;;;;;;5044638;28;64865;-78
2022/12/10 02:00:27;;;;;;;;;45.50;37.25;;;;;;;;5045767;28;61765;-78
2022/12/10 02:03:01;;;;;;;;;51.75;34.75;;;;;;;;5063689;28;61867;-78
2022/12/10 02:05:26;;;;;;;;;46.75;36.50;;;;;;;;5045587;28;61846;-78
2022/12/10 02:08:10;;;;;;;;;57.00;37.33;;;;;;;;5062802;28;61888;-78
2022/12/10 02:10:54;;;;;;;;;56.33;35.00;;;;;;;;5045522;28;61891;-78
2022/12/10 02:13:33;;;;;;;;;40.75;33.75;;;;;;;;5062604;28;62820;-78
2022/12/10 02:16:04;;;;;;;;;46.00;38.50;;;;;;;;5063858;28;61950;-77
2022/12/10 02:18:40;;;;;;;;;53.75;35.75;;;;;;;;5062669;28;61944;-78
2022/12/10 02:21:11;;;;;;;;;41.25;31.25;;;;;;;;5063154;28;61786;-78
2022/12/10 02:23:40;;;;;;;;;34.75;30.00;;;;;;;;5063361;28;62094;-78
2022/12/10 02:26:15;;;;;;;;;55.00;40.50;;;;;;;;5063250;28;62158;-78
2022/12/10 02:28:50;;;;;;;;;41.33;34.33;;;;;;;;5062451;28;62834;-78
2022/12/10 02:31:18;;;;;;;;;49.50;32.50;;;;;;;;5078410;28;61882;-77
2022/12/10 02:33:46;;;;;;;;;46.50;32.00;;;;;;;;5063388;28;62031;-78
2022/12/10 02:36:14;;;;;;;;;35.33;30.00;;;;;;;;5063232;28;61726;-78
2022/12/10 02:38:40;;;;;;;;;40.75;27.50;;;;;;;;5078066;28;64076;-78
2022/12/10 02:41:10;;;;;;;;;37.50;32.25;;;;;;;;5063073;28;61807;-78
2022/12/10 02:43:36;;;;;;;;;34.50;30.25;;;;;;;;5062838;28;61925;-78
2022/12/10 02:46:03;;;;;;;;;36.00;27.00;;;;;;;;5062647;28;61710;-78
2022/12/10 02:48:28;;;;;;;;;48.50;29.75;;;;;;;;5043412;28;63578;-78
2022/12/10 02:50:53;;;;;;;;;39.00;29.00;;;;;;;;5078347;28;61907;-77
2022/12/10 02:53:19;;;;;;;;;39.00;30.00;;;;;;;;5078324;28;61953;-79
2022/12/10 02:55:47;;;;;;;;;49.50;28.25;;;;;;;;5063090;28;61817;-78
2022/12/10 02:58:18;;;;;;;;;47.33;36.67;;;;;;;;5061855;28;61877;-78
2022/12/10 03:01:06;;;;;;;;;38.50;28.50;;;;;;;;5062937;28;61985;-78
2022/12/10 03:03:41;;;;;;;;;38.75;32.00;;;;;;;;5062730;28;61963;-78
2022/12/10 03:06:33;;;;;;;;;46.00;30.00;;;;;;;;5077894;28;62162;-78
2022/12/10 03:09:04;;;;;;;;;41.50;24.75;;;;;;;;5057842;28;63145;-78
2022/12/10 03:11:30;;;;;;;;;35.50;25.50;;;;;;;;5062364;28;61743;-78
2022/12/10 03:14:10;;;;;;;;;34.75;30.00;;;;;;;;5044021;28;61955;-78
2022/12/10 03:16:37;;;;;;;;;46.50;26.50;;;;;;;;5062578;28;61933;-78
2022/12/10 03:19:05;;;;;;;;;41.75;31.50;;;;;;;;5043800;28;63576;-78
2022/12/10 03:21:31;;;;;;;;;41.25;33.25;;;;;;;;5062604;28;62321;-78
2022/12/10 03:23:57;;;;;;;;;36.25;27.50;;;;;;;;5062786;28;62070;-78
2022/12/10 03:26:22;;;;;;;;;35.25;29.50;;;;;;;;5062694;28;61747;-78
2022/12/10 03:28:51;;;;;;;;;43.00;30.25;;;;;;;;5061701;28;61795;-78
2022/12/10 03:31:18;;;;;;;;;40.50;30.25;;;;;;;;5062071;28;61952;-78
2022/12/10 03:33:44;;;;;;;;;36.75;23.00;;;;;;;;5061907;28;63840;-78
2022/12/10 03:36:10;;;;;;;;;39.00;27.75;;;;;;;;5062571;28;61864;-78
2022/12/10 03:38:37;;;;;;;;;34.25;28.00;;;;;;;;5061378;28;63210;-82
2022/12/10 03:41:02;;;;;;;;;36.25;25.75;;;;;;;;5062440;28;61952;-82
2022/12/10 03:43:27;;;;;;;;;35.00;29.50;;;;;;;;5061995;28;62015;-82
2022/12/10 03:45:52;;;;;;;;;33.50;26.50;;;;;;;;5062278;28;61776;-81
2022/12/10 03:48:18;;;;;;;;;30.00;23.25;;;;;;;;5061615;28;61860;-80
2022/12/10 03:50:43;;;;;;;;;37.50;25.75;;;;;;;;5043038;28;61874;-81
2022/12/10 03:53:08;;;;;;;;;38.75;21.75;;;;;;;;5043694;28;61902;-82
2022/12/10 03:55:33;;;;;;;;;32.25;26.75;;;;;;;;5043906;28;61807;-82
2022/12/10 03:57:59;;;;;;;;;29.25;24.75;;;;;;;;5061234;28;61938;-82
2022/12/10 04:00:24;;;;;;;;;27.75;21.75;;;;;;;;5043778;28;62043;-82
2022/12/10 04:02:49;;;;;;;;;31.50;23.50;;;;;;;;5061582;28;62207;-81
2022/12/10 04:05:15;;;;;;;;;29.33;22.00;;;;;;;;5043986;28;61841;-81
2022/12/10 04:07:40;;;;;;;;;41.25;23.75;;;;;;;;5043282;28;63559;-82
2022/12/10 04:10:06;;;;;;;;;31.00;25.75;;;;;;;;5043862;28;61878;-82
2022/12/10 04:12:31;;;;;;;;;35.50;23.00;;;;;;;;5061613;28;62195;-81
2022/12/10 04:17:40;;;;;;;;;30.50;25.25;;;;;;;;5061099;28;62277;-83
2022/12/10 04:26:51;;;;;;;;;33.50;25.75;;;;;;;;5061523;28;61830;-82
2022/12/10 04:28:19;;;;;;;;;26.00;18.25;;;;;;;;5060866;28;61905;-82
2022/12/10 04:30:44;;;;;;;;;32.25;22.25;;;;;;;;5077096;28;62087;-82
2022/12/10 04:33:11;;;;;;;;;24.50;23.25;;;;;;;;5060877;28;61799;-81
2022/12/10 04:35:37;;;;;;;;;26.25;19.50;;;;;;;;5061311;28;61851;-82
2022/12/10 04:38:06;;;;;;;;;37.00;23.75;;;;;;;;5060221;28;61781;-80
2022/12/10 04:40:32;;;;;;;;;40.75;22.25;;;;;;;;5060947;28;62174;-82
2022/12/10 04:42:57;;;;;;;;;32.50;20.00;;;;;;;;5042927;28;62106;-80
2022/12/10 04:45:22;;;;;;;;;30.25;20.25;;;;;;;;5060696;28;62210;-81
2022/12/10 04:47:47;;;;;;;;;29.50;21.50;;;;;;;;5060615;28;61781;-82
2022/12/10 04:50:13;;;;;;;;;31.50;22.75;;;;;;;;5076293;28;62470;-82
2022/12/10 04:52:38;;;;;;;;;37.25;24.25;;;;;;;;5061433;28;61794;-82
2022/12/10 04:55:03;;;;;;;;;25.75;22.75;;;;;;;;5061333;28;61798;-81
2022/12/10 04:57:29;;;;;;;;;27.25;22.50;;;;;;;;5042856;28;63743;-82
2022/12/10 04:59:54;;;;;;;;;27.75;22.75;;;;;;;;5060840;28;62166;-82
2022/12/10 05:02:19;;;;;;;;;32.75;22.50;;;;;;;;5061205;28;61601;-81
2022/12/10 05:04:44;;;;;;;;;27.75;22.50;;;;;;;;5061434;28;62049;-82
2022/12/10 05:07:10;;;;;;;;;26.75;20.00;;;;;;;;5060214;28;62893;-81
2022/12/10 05:09:35;;;;;;;;;30.75;23.25;;;;;;;;5076878;28;61849;-81
2022/12/10 05:12:00;;;;;;;;;27.25;21.00;;;;;;;;5046309;28;62088;-81
2022/12/10 05:14:26;;;;;;;;;25.75;19.50;;;;;;;;5063835;28;61899;-81
2022/12/10 05:16:51;;;;;;;;;25.25;22.75;;;;;;;;5063824;28;62055;-81
2022/12/10 05:19:19;;;;;;;;;22.25;20.50;;;;;;;;5064256;28;62013;-81
2022/12/10 05:24:28;;;;;;;;;32.25;25.25;;;;;;;;5064334;28;62025;-81
2022/12/10 05:26:53;;;;;;;;;27.00;19.75;;;;;;;;5045755;28;65011;-82
2022/12/10 05:29:19;;;;;;;;;23.50;17.00;;;;;;;;5063389;28;61849;-82
2022/12/10 05:31:44;;;;;;;;;22.75;15.50;;;;;;;;5046192;28;61760;-81
2022/12/10 05:34:10;;;;;;;;;33.25;21.50;;;;;;;;5064481;28;61814;-82
2022/12/10 05:36:35;;;;;;;;;26.25;23.25;;;;;;;;5063570;28;62825;-82
2022/12/10 05:39:01;;;;;;;;;20.25;19.75;;;;;;;;5046111;28;61720;-82
2022/12/10 05:41:27;;;;;;;;;27.75;17.00;;;;;;;;5064066;28;62190;-81
2022/12/10 05:43:54;;;;;;;;;29.75;21.75;;;;;;;;5063736;28;61786;-82
2022/12/10 05:46:21;;;;;;;;;29.00;21.50;;;;;;;;5045278;28;63625;-81
2022/12/10 05:48:46;;;;;;;;;24.50;16.75;;;;;;;;5045661;28;61843;-82
2022/12/10 05:51:13;;;;;;;;;19.75;14.75;;;;;;;;5064256;28;61912;-82
2022/12/10 05:53:39;;;;;;;;;10.25;5.25;;;;;;;;5064244;28;62381;-82
2022/12/10 05:56:06;;;;;;;;;32.50;24.25;;;;;;;;5044683;28;64139;-82
2022/12/10 05:58:31;;;;;;;;;24.50;18.75;;;;;;;;5062712;28;62052;-81
2022/12/10 06:00:57;;;;;;;;;19.75;18.00;;;;;;;;5045132;28;62314;-82
2022/12/10 06:03:23;;;;;;;;;25.00;16.75;;;;;;;;5063322;28;61888;-81
2022/12/10 06:05:48;;;;;;;;;17.00;14.50;;;;;;;;5062778;28;61740;-82
2022/12/10 06:08:13;;;;;;;;;17.25;11.75;;;;;;;;5045618;28;61925;-81
2022/12/10 06:10:39;;;;;;;;;17.75;11.75;;;;;;;;5063191;28;62047;-82
2022/12/10 06:13:04;;;;;;;;;19.75;15.25;;;;;;;;5063227;28;62061;-81
2022/12/10 06:15:29;;;;;;;;;26.75;16.75;;;;;;;;5044697;28;64760;-83
2022/12/10 06:17:55;;;;;;;;;18.75;16.25;;;;;;;;5063841;28;61741;-82
2022/12/10 06:20:21;;;;;;;;;18.25;16.25;;;;;;;;5063234;28;61897;-82
2022/12/10 06:22:46;;;;;;;;;22.50;16.50;;;;;;;;5063412;28;61810;-83
2022/12/10 06:25:11;;;;;;;;;34.50;20.00;;;;;;;;5062776;28;62665;-82
2022/12/10 06:27:36;;;;;;;;;27.75;23.25;;;;;;;;5045149;28;62025;-83
2022/12/10 06:30:02;;;;;;;;;24.75;15.25;;;;;;;;5045029;28;61953;-83
2022/12/10 06:32:27;;;;;;;;;21.75;16.00;;;;;;;;5045131;28;62079;-82
2022/12/10 06:34:52;;;;;;;;;35.25;16.75;;;;;;;;5062808;28;61948;-82
2022/12/10 06:37:18;;;;;;;;;26.75;18.25;;;;;;;;5063352;28;61994;-82
2022/12/10 06:39:43;;;;;;;;;20.50;15.50;;;;;;;;5063385;28;61848;-82
2022/12/10 06:42:08;;;;;;;;;22.50;21.25;;;;;;;;5045254;28;62410;-82
2022/12/10 06:44:33;;;;;;;;;26.00;14.75;;;;;;;;5062447;28;62741;-82
2022/12/10 06:46:59;;;;;;;;;31.25;16.75;;;;;;;;5063365;28;62547;-82
2022/12/10 06:49:24;;;;;;;;;32.00;14.25;;;;;;;;5062902;28;61997;-82
2022/12/10 06:51:49;;;;;;;;;19.00;12.00;;;;;;;;5063041;28;61877;-82
2022/12/10 06:54:15;;;;;;;;;14.50;8.50;;;;;;;;5044587;28;63687;-82
2022/12/10 06:56:40;;;;;;;;;16.75;14.00;;;;;;;;5044849;28;62117;-82
2022/12/10 06:59:08;;;;;;;;;16.25;15.00;;;;;;;;5063149;28;62272;-82
2022/12/10 07:01:34;;;;;;;;;19.00;10.75;;;;;;;;5063354;28;61956;-82
2022/12/10 07:03:59;;;;;;;;;17.75;14.25;;;;;;;;5043933;28;63965;-82
2022/12/10 07:06:25;;;;;;;;;10.50;10.50;;;;;;;;5062987;28;61887;-82
2022/12/10 07:08:51;;;;;;;;;15.50;10.00;;;;;;;;5063082;28;61712;-82
2022/12/10 07:11:17;;;;;;;;;25.00;17.50;;;;;;;;5062740;28;61980;-83
2022/12/10 07:13:42;;;;;;;;;20.75;16.00;;;;;;;;5044471;28;64943;-85
2022/12/10 07:16:12;;;;;;;;;21.75;14.00;;;;;;;;5063822;28;61401;-86
2022/12/10 07:18:37;;;;;;;;;15.00;9.00;;;;;;;;5065665;28;61947;-85
2022/12/10 07:21:12;;;;;;;;;10.00;2.00;;;;;;;;5048201;28;61796;-86
2022/12/10 07:23:37;;;;;;;;;19.00;14.50;;;;;;;;5065267;28;62030;-84
2022/12/10 07:26:02;;;;;;;;;17.50;16.00;;;;;;;;5065389;28;61830;-84
2022/12/10 07:28:28;;;;;;;;;11.50;11.00;;;;;;;;5065827;28;61781;-85
2022/12/10 07:30:59;;;;;;;;;24.50;12.00;;;;;;;;5064891;28;61671;-85
2022/12/10 07:33:25;;;;;;;;;22.00;13.50;;;;;;;;5043939;28;63761;-84
2022/12/10 07:35:50;;;;;;;;;19.75;15.50;;;;;;;;5080884;28;62015;-84
2022/12/10 07:38:15;;;;;;;;;14.50;12.00;;;;;;;;5065047;28;61932;-85
2022/12/10 07:40:40;;;;;;;;;17.25;16.50;;;;;;;;5048876;28;61961;-84
2022/12/10 07:43:06;;;;;;;;;15.50;12.50;;;;;;;;5069066;28;61746;-85
2022/12/10 07:45:32;;;;;;;;;15.75;9.00;;;;;;;;5069889;28;61805;-85
2022/12/10 07:47:57;;;;;;;;;15.25;13.00;;;;;;;;5066085;28;61847;-85
2022/12/10 07:50:22;;;;;;;;;23.50;14.25;;;;;;;;5068101;28;61796;-86
2022/12/10 07:52:48;;;;;;;;;16.75;12.50;;;;;;;;5067209;28;62584;-85
2022/12/10 07:55:13;;;;;;;;;22.75;18.75;;;;;;;;5055180;28;61211;-85
2022/12/10 07:57:38;;;;;;;;;20.50;12.50;;;;;;;;5068677;28;61151;-85
2022/12/10 08:00:04;;;;;;;;;21.25;10.00;;;;;;;;5046774;28;62391;-85
2022/12/10 08:02:29;;;;;;;;;32.00;23.50;;;;;;;;5045907;28;64071;-85
2022/12/10 08:04:54;;;;;;;;;16.25;16.00;;;;;;;;5045437;28;61833;-85
2022/12/10 08:07:20;;;;;;;;;24.00;16.00;;;;;;;;5056487;28;61917;-81
2022/12/10 08:09:45;;;;;;;;;23.50;16.75;;;;;;;;5061824;28;61806;-80
2022/12/10 08:12:10;;;;;;;;;16.75;14.75;;;;;;;;5041668;28;62747;-81
2022/12/10 08:14:35;;;;;;;;;20.75;10.50;;;;;;;;5060636;28;62404;-80
2022/12/10 08:17:03;;;;;;;;;23.75;16.00;;;;;;;;5043521;28;62531;-82
2022/12/10 08:19:29;;;;;;;;;23.25;13.25;;;;;;;;5047553;28;61819;-84
2022/12/10 08:21:54;;;;;;;;;18.75;15.00;;;;;;;;5047345;28;63737;-83
2022/12/10 08:24:19;;;;;;;;;18.25;14.75;;;;;;;;5046712;28;61871;-84
2022/12/10 08:26:44;;;;;;;;;17.50;13.75;;;;;;;;5080473;28;61820;-84
2022/12/10 08:29:10;;;;;;;;;24.25;16.25;;;;;;;;5047349;28;62073;-84
2022/12/10 08:31:38;;;;;;;;;25.25;16.75;;;;;;;;5045184;28;63750;-84
2022/12/10 08:34:04;;;;;;;;;13.75;12.00;;;;;;;;5047153;28;61808;-84
2022/12/10 08:36:30;;;;;;;;;17.00;13.50;;;;;;;;5066319;28;62152;-84
2022/12/10 08:38:55;;;;;;;;;24.25;14.50;;;;;;;;5064896;28;61846;-82
2022/12/10 08:41:21;;;;;;;;;17.25;13.00;;;;;;;;5061131;28;62031;-85
2022/12/10 08:43:47;;;;;;;;;18.50;14.25;;;;;;;;5044744;28;61954;-84
2022/12/10 08:46:12;;;;;;;;;19.75;15.25;;;;;;;;5048660;28;62295;-82
2022/12/10 08:48:38;;;;;;;;;19.50;14.50;;;;;;;;5067401;28;62081;-85
2022/12/10 08:51:04;;;;;;;;;18.50;18.50;;;;;;;;5063854;28;62932;-80
2022/12/10 08:53:29;;;;;;;;;18.75;16.00;;;;;;;;5065545;28;61872;-80
2022/12/10 08:55:55;;;;;;;;;20.25;9.75;;;;;;;;5065967;28;61990;-83
2022/12/10 08:58:20;;;;;;;;;28.25;21.75;;;;;;;;5068294;28;61907;-80
2022/12/10 09:00:46;;;;;;;;;25.75;22.75;;;;;;;;5045403;28;63835;-83
2022/12/10 09:03:11;;;;;;;;;25.50;15.25;;;;;;;;5044500;28;61979;-83
2022/12/10 09:05:37;;;;;;;;;13.75;10.00;;;;;;;;5063004;28;61877;-83
2022/12/10 09:08:02;;;;;;;;;16.25;14.00;;;;;;;;5064012;28;61817;-83
2022/12/10 09:10:27;;;;;;;;;18.50;12.75;;;;;;;;5066103;28;61520;-83
2022/12/10 09:12:53;;;;;;;;;26.75;16.75;;;;;;;;5068712;28;61933;-84
2022/12/10 09:15:19;;;;;;;;;18.25;13.25;;;;;;;;5067589;28;61784;-83
2022/12/10 09:17:44;;;;;;;;;21.50;14.75;;;;;;;;5069101;28;62068;-84
2022/12/10 09:20:09;;;;;;;;;24.00;15.75;;;;;;;;5070651;28;61876;-83
2022/12/10 09:22:37;;;;;;;;;25.75;14.25;;;;;;;;5055861;28;61813;-83
2022/12/10 09:25:05;;;;;;;;;30.75;19.00;;;;;;;;5070884;28;61973;-84
2022/12/10 09:27:30;;;;;;;;;27.00;19.50;;;;;;;;5053160;28;62243;-83
2022/12/10 09:29:55;;;;;;;;;19.00;15.00;;;;;;;;5053611;28;63713;-83
2022/12/10 09:32:21;;;;;;;;;17.00;16.00;;;;;;;;5071474;28;62007;-83
2022/12/10 09:34:46;;;;;;;;;19.50;13.25;;;;;;;;5071227;28;61663;-83
2022/12/10 09:37:11;;;;;;;;;22.25;16.25;;;;;;;;5075972;28;61745;-83
2022/12/10 09:39:37;;;;;;;;;20.25;13.00;;;;;;;;5059052;28;63576;-83
2022/12/10 09:42:28;;;;;;;;;17.75;14.00;;;;;;;;5077213;28;61236;-81
2022/12/10 09:45:17;;;;;;;;;22.50;19.00;;;;;;;;5075319;28;61298;-83
2022/12/10 09:47:52;;;;;;;;;28.50;16.50;;;;;;;;5086997;28;61891;-81
2022/12/10 09:50:21;;;;;;;;;18.75;14.00;;;;;;;;5064831;28;63811;-81
2022/12/10 09:52:50;;;;;;;;;18.00;13.50;;;;;;;;5084235;28;61889;-81
2022/12/10 09:55:45;;;;;;;;;21.25;16.50;;;;;;;;5063261;28;61851;-82
2022/12/10 09:58:17;;;;;;;;;22.50;17.50;;;;;;;;5050553;28;61735;-82
2022/12/10 10:00:44;;;;;;;;;26.50;18.25;;;;;;;;5062570;28;62314;-82
2022/12/10 10:03:14;;;;;;;;;28.50;16.75;;;;;;;;5063432;28;62038;-81
2022/12/10 10:05:45;;;;;;;;;19.00;15.25;;;;;;;;5063684;28;61879;-82
2022/12/10 10:08:13;;;;;;;;;22.00;13.00;;;;;;;;5063546;28;61972;-81
2022/12/10 10:10:40;;;;;;;;;14.25;14.25;;;;;;;;5063161;28;61723;-82
2022/12/10 10:13:08;;;;;;;;;34.75;21.00;;;;;;;;5063385;28;61828;-81
2022/12/10 10:15:35;;;;;;;;;18.25;15.00;;;;;;;;5044908;28;62077;-81
2022/12/10 10:18:09;;;;;;;;;28.50;20.00;;;;;;;;5063619;28;61781;-81
2022/12/10 10:20:35;;;;;;;;;20.25;17.00;;;;;;;;5043986;28;64764;-81
2022/12/10 10:23:00;;;;;;;;;24.50;17.75;;;;;;;;5066240;28;62105;-82
2022/12/10 10:25:26;;;;;;;;;30.00;21.25;;;;;;;;5066857;28;61790;-84
2022/12/10 10:27:51;;;;;;;;;23.50;14.75;;;;;;;;5063559;28;61828;-81
2022/12/10 10:30:18;;;;;;;;;26.00;16.00;;;;;;;;5063044;28;62746;-81
2022/12/10 10:32:47;;;;;;;;;31.00;19.25;;;;;;;;5063780;28;61889;-82
2022/12/10 10:35:38;;;;;;;;;18.00;11.50;;;;;;;;5063829;28;61818;-81
2022/12/10 10:38:12;;;;;;;;;27.25;18.75;;;;;;;;5040058;28;61722;-81
2022/12/10 10:40:37;;;;;;;;;23.50;18.50;;;;;;;;5045484;28;63839;-81
2022/12/10 10:43:03;;;;;;;;;17.75;15.75;;;;;;;;5063810;28;62019;-82
2022/12/10 10:45:34;;;;;;;;;22.75;18.25;;;;;;;;5063166;28;62563;-83
2022/12/10 10:48:13;;;;;;;;;24.50;18.50;;;;;;;;5045271;28;62049;-81
2022/12/10 10:50:40;;;;;;;;;26.00;19.25;;;;;;;;5043823;28;63782;-80
2022/12/10 10:53:24;;;;;;;;;21.75;18.75;;;;;;;;5063078;28;61818;-79
2022/12/10 10:55:50;;;;;;;;;22.75;17.00;;;;;;;;5044501;28;61942;-80
2022/12/10 10:58:19;;;;;;;;;22.50;15.25;;;;;;;;5063066;28;61794;-81
2022/12/10 11:00:53;;;;;;;;;22.50;14.25;;;;;;;;5043282;28;63657;-77
2022/12/10 11:03:18;;;;;;;;;26.00;20.25;;;;;;;;5062483;28;61944;-77
2022/12/10 11:05:46;;;;;;;;;23.00;16.50;;;;;;;;5044180;28;62074;-77
2022/12/10 11:08:20;;;;;;;;;25.75;14.25;;;;;;;;5061746;28;61793;-81
2022/12/10 11:10:50;;;;;;;;;15.25;10.75;;;;;;;;5044055;28;63323;-82
2022/12/10 11:13:22;;;;;;;;;19.00;14.00;;;;;;;;5045137;28;61830;-82
2022/12/10 11:15:53;;;;;;;;;20.25;14.75;;;;;;;;5062560;28;61715;-83
2022/12/10 11:18:24;;;;;;;;;16.75;15.00;;;;;;;;5062703;28;61679;-82
2022/12/10 11:21:08;;;;;;;;;16.00;11.25;;;;;;;;5043383;28;64640;-82
2022/12/10 11:23:52;;;;;;;;;15.00;15.00;;;;;;;;5061895;28;62052;-83
2022/12/10 11:26:18;;;;;;;;;22.50;18.00;;;;;;;;5061587;28;61724;-82
2022/12/10 11:29:01;;;;;;;;;19.50;18.50;;;;;;;;5061446;28;61921;-81
2022/12/10 11:31:37;;;;;;;;;22.75;18.00;;;;;;;;5067463;28;62205;-80
2022/12/10 11:34:13;;;;;;;;;29.75;18.75;;;;;;;;5061767;28;62338;-78
2022/12/10 11:36:46;;;;;;;;;32.00;21.00;;;;;;;;5059594;28;62011;-81
2022/12/10 11:39:26;;;;;;;;;20.75;17.50;;;;;;;;5040465;28;61978;-81
2022/12/10 11:42:04;;;;;;;;;24.50;18.25;;;;;;;;5057954;28;61905;-81
2022/12/10 11:44:32;;;;;;;;;29.00;18.75;;;;;;;;5042307;28;61800;-80
2022/12/10 11:47:26;;;;;;;;;19.25;19.25;;;;;;;;5060308;28;62309;-81
2022/12/10 11:49:57;;;;;;;;;29.75;25.00;;;;;;;;5060460;28;61877;-82
2022/12/10 11:52:26;;;;;;;;;36.75;29.00;;;;;;;;5043008;28;63545;-79
2022/12/10 11:54:51;;;;;;;;;22.50;17.50;;;;;;;;5043283;28;61956;-80
2022/12/10 11:57:19;;;;;;;;;26.00;19.00;;;;;;;;5060985;28;61988;-80
2022/12/10 11:59:44;;;;;;;;;19.50;15.75;;;;;;;;5061416;28;61984;-78
2022/12/10 12:02:19;;;;;;;;;19.75;17.75;;;;;;;;5042312;28;64719;-81
2022/12/10 12:04:44;;;;;;;;;22.25;17.25;;;;;;;;5061988;28;62223;-81
2022/12/10 12:07:18;;;;;;;;;18.00;16.75;;;;;;;;5043556;28;61975;-81
2022/12/10 12:09:44;;;;;;;;;17.00;16.00;;;;;;;;5062152;28;61826;-80
2022/12/10 12:12:34;;;;;;;;;21.50;16.25;;;;;;;;5042684;28;63669;-81
2022/12/10 12:15:03;;;;;;;;;15.75;14.50;;;;;;;;5042978;28;62009;-80
2022/12/10 12:17:35;;;;;;;;;24.75;18.50;;;;;;;;5059968;28;61897;-82
2022/12/10 12:20:02;;;;;;;;;22.50;17.50;;;;;;;;5062954;28;62280;-81
2022/12/10 12:22:33;;;;;;;;;13.25;11.00;;;;;;;;5047271;28;63814;-82
2022/12/10 12:25:01;;;;;;;;;20.50;16.50;;;;;;;;5066470;28;61801;-81
2022/12/10 12:27:38;;;;;;;;;18.50;15.00;;;;;;;;5047862;28;61877;-81
2022/12/10 12:30:14;;;;;;;;;19.75;13.50;;;;;;;;5066262;28;61771;-82
2022/12/10 12:32:51;;;;;;;;;25.00;18.50;;;;;;;;5078115;28;63887;-82
2022/12/10 12:35:19;;;;;;;;;20.25;16.00;;;;;;;;5066387;28;62279;-80
2022/12/10 12:37:55;;;;;;;;;22.25;15.75;;;;;;;;5067171;28;61900;-81
2022/12/10 12:40:35;;;;;;;;;20.50;17.00;;;;;;;;5068274;28;61702;-80
2022/12/10 12:43:10;;;;;;;;;24.50;22.00;;;;;;;;5049257;28;63494;-80
2022/12/10 12:45:48;;;;;;;;;32.00;28.00;;;;;;;;5067427;28;61905;-79
2022/12/10 12:48:14;;;;;;;;;36.75;27.25;;;;;;;;5048474;28;62394;-79
2022/12/10 12:50:42;;;;;;;;;23.25;20.00;;;;;;;;5066025;28;62183;-84
2022/12/10 12:53:19;;;;;;;;;35.50;25.00;;;;;;;;5046514;28;64753;-81
2022/12/10 12:55:44;;;;;;;;;27.00;22.75;;;;;;;;5082946;27;61929;-80
2022/12/10 12:58:12;;;;;;;;;22.75;19.75;;;;;;;;5064795;28;62056;-82
2022/12/10 13:06:36;;;;;;;;;27.75;20.25;;;;;;;;5105962;22;62088;-80
2022/12/10 13:09:11;;;;;;;;;19.00;17.00;;;;;;;;5057079;28;62456;-84
2022/12/10 13:11:36;;;;;;;;;23.75;16.25;;;;;;;;5052379;28;62886;-81
2022/12/10 13:14:08;;;;;;;;;14.25;12.50;;;;;;;;5053430;28;62853;-84
2022/12/10 13:16:37;;;;;;;;;10.25;7.25;;;;;;;;5055286;28;61871;-83
2022/12/10 13:19:15;;;;;;;;;17.00;14.25;;;;;;;;5054688;28;62212;-83
2022/12/10 13:22:16;;;;;;;;;20.50;13.00;;;;;;;;5057237;28;62182;-79
2022/12/10 13:24:45;;;;;;;;;18.00;12.50;;;;;;;;4985523;28;62140;-80
2022/12/10 13:27:10;;;;;;;;;19.25;14.75;;;;;;;;4961923;28;62249;-78
2022/12/10 13:29:48;;;;;;;;;20.50;18.75;;;;;;;;4977691;28;62234;-78
2022/12/10 13:32:18;;;;;;;;;29.00;17.75;;;;;;;;4977172;28;62039;-77
2022/12/10 13:34:44;;;;;;;;;15.00;13.00;;;;;;;;4976217;28;62715;-78
2022/12/10 13:37:28;;;;;;;;;24.50;16.50;;;;;;;;4969130;28;61911;-79
2022/12/10 13:39:59;;;;;;;;;23.50;18.00;;;;;;;;4991887;28;62094;-78
2022/12/10 13:45:21;;;;;;;;;18.00;15.00;;;;;;;;4988111;28;62380;-79
2022/12/10 13:47:48;;;;;;;;;19.75;14.50;;;;;;;;4981419;28;61828;-76
2022/12/10 13:50:14;;;;;;;;;21.75;16.25;;;;;;;;4982003;28;61975;-79
2022/12/10 13:52:59;;;;;;;;;22.00;14.00;;;;;;;;4981310;28;61824;-80
2022/12/10 13:55:36;;;;;;;;;19.75;15.75;;;;;;;;4980396;28;62844;-81
2022/12/10 13:58:02;;;;;;;;;33.50;19.75;;;;;;;;4995860;28;62412;-80
2022/12/10 14:00:45;;;;;;;;;31.25;22.50;;;;;;;;5042908;28;62453;-80
2022/12/10 14:03:29;;;;;;;;;21.75;17.75;;;;;;;;5043455;28;61916;-78
2022/12/10 14:05:58;;;;;;;;;27.25;18.50;;;;;;;;5042864;28;62157;-76
2022/12/10 14:08:27;;;;;;;;;23.75;17.75;;;;;;;;5051346;28;61834;-77
2022/12/10 14:10:53;;;;;;;;;23.75;16.75;;;;;;;;5033253;28;61821;-77
2022/12/10 14:13:21;;;;;;;;;20.50;18.50;;;;;;;;5051780;28;62212;-74
2022/12/10 14:15:57;;;;;;;;;22.00;16.75;;;;;;;;5050379;28;65011;-74
2022/12/10 14:18:22;;;;;;;;;20.50;17.00;;;;;;;;5051143;28;62317;-74
2022/12/10 14:20:52;;;;;;;;;15.75;13.25;;;;;;;;5050626;28;61810;-73
2022/12/10 14:23:33;;;;;;;;;20.25;15.00;;;;;;;;5052911;28;61740;-72
2022/12/10 14:26:03;;;;;;;;;19.00;14.75;;;;;;;;5050439;28;65147;-75
2022/12/10 14:28:29;;;;;;;;;25.00;18.75;;;;;;;;5049101;28;62135;-75
2022/12/10 14:30:54;;;;;;;;;18.25;14.00;;;;;;;;5049840;28;61788;-72
2022/12/10 14:33:22;;;;;;;;;21.25;16.25;;;;;;;;5050870;28;61961;-76
2022/12/10 14:35:48;;;;;;;;;29.75;21.50;;;;;;;;5049477;28;63657;-76
2022/12/10 14:38:23;;;;;;;;;26.75;16.50;;;;;;;;5049942;28;61954;-74
2022/12/10 14:40:48;;;;;;;;;26.00;19.25;;;;;;;;5052001;28;62262;-73
2022/12/10 14:43:35;;;;;;;;;18.75;17.50;;;;;;;;5050915;28;61639;-74